sensor_id;sensor_type;location;lat;lon;timestamp;temperature;humidity
2999;DHT22;1509;51.964;7.628;2024-01-10T00:01:59;-4.60;99.90
2999;DHT22;1509;51.964;7.628;2024-01-10T00:04:25;-4.60;99.90
2999;DHT22;1509;51.964;7.628;2024-01-10T00:06:50;-4.60;99.90
2999;DHT22;1509;51.964;7.628;2024-01-10T00:09:16;-4.60;99.90
2999;DHT22;1509;51.964;7.628;2024-01-10T00:11:42;-4.70;99.90
2999;DHT22;1509;51.964;7.628;2024-01-10T00:14:07;-4.70;99.90
2999;DHT22;1509;51.964;7.628;2024-01-10T00:16:33;-4.70;99.90
2999;DHT22;1509;51.964;7.628;2024-01-10T00:18:59;-4.70;99.90
2999;DHT22;1509;51.964;7.628;2024-01-10T00:21:24;-4.70;99.90
2999;DHT22;1509;51.964;7.628;2024-01-10T00:23:50;-4.80;99.90
2999;DHT22;1509;51.964;7.628;2024-01-10T00:26:15;-4.80;99.90
2999;DHT22;1509;51.964;7.628;2024-01-10T00:28:42;-4.80;99.90
2999;DHT22;1509;51.964;7.628;2024-01-10T00:31:08;-4.90;99.90
2999;DHT22;1509;51.964;7.628;2024-01-10T00:33:33;-4.90;99.90
2999;DHT22;1509;51.964;7.628;2024-01-10T00:35:59;-4.90;99.90
2999;DHT22;1509;51.964;7.628;2024-01-10T00:38:25;-5.00;99.90
2999;DHT22;1509;51.964;7.628;2024-01-10T00:40:51;-4.90;99.90
2999;DHT22;1509;51.964;7.628;2024-01-10T00:43:16;-5.00;99.90
2999;DHT22;1509;51.964;7.628;2024-01-10T00:45:42;-5.00;99.90
2999;DHT22;1509;51.964;7.628;2024-01-10T00:48:08;-5.00;99.90
2999;DHT22;1509;51.964;7.628;2024-01-10T00:50:33;-5.00;99.90
2999;DHT22;1509;51.964;7.628;2024-01-10T00:52:59;-5.00;99.90
2999;DHT22;1509;51.964;7.628;2024-01-10T00:55:24;-4.90;99.90
2999;DHT22;1509;51.964;7.628;2024-01-10T00:57:50;-4.90;99.90
2999;DHT22;1509;51.964;7.628;2024-01-10T01:00:16;-5.00;99.90
2999;DHT22;1509;51.964;7.628;2024-01-10T01:02:41;-5.00;99.90
2999;DHT22;1509;51.964;7.628;2024-01-10T01:05:07;-5.00;99.90
2999;DHT22;1509;51.964;7.628;2024-01-10T01:07:33;-5.10;99.90
2999;DHT22;1509;51.964;7.628;2024-01-10T01:09:59;-5.00;99.90
2999;DHT22;1509;51.964;7.628;2024-01-10T01:12:25;-5.00;99.90
2999;DHT22;1509;51.964;7.628;2024-01-10T01:14:59;-5.00;99.90
2999;DHT22;1509;51.964;7.628;2024-01-10T01:17:25;-5.00;99.90
2999;DHT22;1509;51.964;7.628;2024-01-10T01:19:50;-5.00;99.90
2999;DHT22;1509;51.964;7.628;2024-01-10T01:22:16;-5.00;99.90
2999;DHT22;1509;51.964;7.628;2024-01-10T01:24:42;-5.00;99.90
2999;DHT22;1509;51.964;7.628;2024-01-10T01:27:07;-5.00;99.90
2999;DHT22;1509;51.964;7.628;2024-01-10T01:29:33;-5.00;99.90
2999;DHT22;1509;51.964;7.628;2024-01-10T01:31:58;-5.00;99.90
2999;DHT22;1509;51.964;7.628;2024-01-10T01:34:24;-5.10;99.90
2999;DHT22;1509;51.964;7.628;2024-01-10T01:36:49;-4.90;99.90
2999;DHT22;1509;51.964;7.628;2024-01-10T01:39:17;-5.10;99.90
2999;DHT22;1509;51.964;7.628;2024-01-10T01:41:43;-5.10;99.90
2999;DHT22;1509;51.964;7.628;2024-01-10T01:44:08;-5.10;99.90
2999;DHT22;1509;51.964;7.628;2024-01-10T01:46:35;-5.10;99.90
2999;DHT22;1509;51.964;7.628;2024-01-10T01:49:01;-5.10;99.90
2999;DHT22;1509;51.964;7.628;2024-01-10T01:51:28;-5.10;99.90
2999;DHT22;1509;51.964;7.628;2024-01-10T01:53:55;-5.10;99.90
2999;DHT22;1509;51.964;7.628;2024-01-10T01:56:21;-5.10;99.90
2999;DHT22;1509;51.964;7.628;2024-01-10T01:58:50;-5.20;99.90
2999;DHT22;1509;51.964;7.628;2024-01-10T02:01:17;-5.20;99.90
2999;DHT22;1509;51.964;7.628;2024-01-10T02:03:45;-5.20;99.90
2999;DHT22;1509;51.964;7.628;2024-01-10T02:06:11;-5.20;99.90
2999;DHT22;1509;51.964;7.628;2024-01-10T02:08:37;-5.20;99.90
2999;DHT22;1509;51.964;7.628;2024-01-10T02:11:03;-5.20;99.90
2999;DHT22;1509;51.964;7.628;2024-01-10T02:13:30;-5.10;99.90
2999;DHT22;1509;51.964;7.628;2024-01-10T02:15:58;-5.20;99.90
2999;DHT22;1509;51.964;7.628;2024-01-10T02:18:24;-5.20;99.90
2999;DHT22;1509;51.964;7.628;2024-01-10T02:20:50;-5.20;99.90
2999;DHT22;1509;51.964;7.628;2024-01-10T02:23:15;-5.20;99.90
2999;DHT22;1509;51.964;7.628;2024-01-10T02:25:41;-5.30;99.90
2999;DHT22;1509;51.964;7.628;2024-01-10T02:28:07;-5.20;99.90
2999;DHT22;1509;51.964;7.628;2024-01-10T02:30:34;-5.20;99.90
2999;DHT22;1509;51.964;7.628;2024-01-10T02:33:00;-5.20;99.90
2999;DHT22;1509;51.964;7.628;2024-01-10T02:35:29;-5.30;99.90
2999;DHT22;1509;51.964;7.628;2024-01-10T02:37:58;-5.30;99.90
2999;DHT22;1509;51.964;7.628;2024-01-10T02:40:24;-5.30;99.90
2999;DHT22;1509;51.964;7.628;2024-01-10T02:42:49;-5.30;99.90
2999;DHT22;1509;51.964;7.628;2024-01-10T02:45:17;-5.30;99.90
2999;DHT22;1509;51.964;7.628;2024-01-10T02:47:42;-5.30;99.90
2999;DHT22;1509;51.964;7.628;2024-01-10T02:50:08;-5.30;99.90
2999;DHT22;1509;51.964;7.628;2024-01-10T02:52:37;-5.30;99.90
2999;DHT22;1509;51.964;7.628;2024-01-10T02:55:03;-5.30;99.90
2999;DHT22;1509;51.964;7.628;2024-01-10T02:57:29;-5.40;99.90
2999;DHT22;1509;51.964;7.628;2024-01-10T02:59:54;-5.40;99.90
2999;DHT22;1509;51.964;7.628;2024-01-10T03:02:20;-5.40;99.90
2999;DHT22;1509;51.964;7.628;2024-01-10T03:04:45;-5.40;99.90
2999;DHT22;1509;51.964;7.628;2024-01-10T03:07:11;-5.40;99.90
2999;DHT22;1509;51.964;7.628;2024-01-10T03:09:36;-5.40;99.90
2999;DHT22;1509;51.964;7.628;2024-01-10T03:12:02;-5.30;99.90
2999;DHT22;1509;51.964;7.628;2024-01-10T03:14:28;-5.30;99.90
2999;DHT22;1509;51.964;7.628;2024-01-10T03:16:53;-5.30;99.90
2999;DHT22;1509;51.964;7.628;2024-01-10T03:19:19;-5.30;99.90
2999;DHT22;1509;51.964;7.628;2024-01-10T03:21:45;-5.30;99.90
2999;DHT22;1509;51.964;7.628;2024-01-10T03:24:10;-5.30;99.90
2999;DHT22;1509;51.964;7.628;2024-01-10T03:26:39;-5.30;99.90
2999;DHT22;1509;51.964;7.628;2024-01-10T03:29:05;-5.30;99.90
2999;DHT22;1509;51.964;7.628;2024-01-10T03:31:30;-5.30;99.90
2999;DHT22;1509;51.964;7.628;2024-01-10T03:33:57;-5.20;99.90
2999;DHT22;1509;51.964;7.628;2024-01-10T03:36:23;-5.30;99.90
2999;DHT22;1509;51.964;7.628;2024-01-10T03:38:50;-5.30;99.90
2999;DHT22;1509;51.964;7.628;2024-01-10T03:41:17;-5.30;99.90
2999;DHT22;1509;51.964;7.628;2024-01-10T03:43:43;-5.30;99.90
2999;DHT22;1509;51.964;7.628;2024-01-10T03:46:09;-5.30;99.90
2999;DHT22;1509;51.964;7.628;2024-01-10T03:48:35;-5.30;99.90
2999;DHT22;1509;51.964;7.628;2024-01-10T03:51:01;-5.30;99.90
2999;DHT22;1509;51.964;7.628;2024-01-10T03:53:30;-5.30;99.90
2999;DHT22;1509;51.964;7.628;2024-01-10T03:55:56;-5.30;99.90
2999;DHT22;1509;51.964;7.628;2024-01-10T03:58:21;-5.30;99.90
2999;DHT22;1509;51.964;7.628;2024-01-10T04:00:47;-5.30;99.90
2999;DHT22;1509;51.964;7.628;2024-01-10T04:03:13;-5.30;99.90
2999;DHT22;1509;51.964;7.628;2024-01-10T04:05:38;-5.30;99.90
2999;DHT22;1509;51.964;7.628;2024-01-10T04:08:04;-5.40;99.90
2999;DHT22;1509;51.964;7.628;2024-01-10T04:10:30;-5.40;99.90
2999;DHT22;1509;51.964;7.628;2024-01-10T04:12:56;-5.40;99.90
2999;DHT22;1509;51.964;7.628;2024-01-10T04:15:21;-5.40;99.90
2999;DHT22;1509;51.964;7.628;2024-01-10T04:17:47;-5.40;99.90
2999;DHT22;1509;51.964;7.628;2024-01-10T04:20:13;-5.40;99.90
2999;DHT22;1509;51.964;7.628;2024-01-10T04:22:39;-5.40;99.90
2999;DHT22;1509;51.964;7.628;2024-01-10T04:25:06;-5.50;99.90
2999;DHT22;1509;51.964;7.628;2024-01-10T04:27:32;-5.40;99.90
2999;DHT22;1509;51.964;7.628;2024-01-10T04:29:58;-5.40;99.90
2999;DHT22;1509;51.964;7.628;2024-01-10T04:32:24;-5.40;99.90
2999;DHT22;1509;51.964;7.628;2024-01-10T04:34:49;-5.40;99.90
2999;DHT22;1509;51.964;7.628;2024-01-10T04:37:15;-5.40;99.90
2999;DHT22;1509;51.964;7.628;2024-01-10T04:39:41;-5.50;99.90
2999;DHT22;1509;51.964;7.628;2024-01-10T04:42:08;-5.50;99.90
2999;DHT22;1509;51.964;7.628;2024-01-10T04:44:35;-5.50;99.90
2999;DHT22;1509;51.964;7.628;2024-01-10T04:47:01;-5.50;99.90
2999;DHT22;1509;51.964;7.628;2024-01-10T04:49:27;-5.50;99.90
2999;DHT22;1509;51.964;7.628;2024-01-10T04:51:52;-5.50;99.90
2999;DHT22;1509;51.964;7.628;2024-01-10T04:54:18;-5.50;99.90
2999;DHT22;1509;51.964;7.628;2024-01-10T04:56:43;-5.40;99.90
2999;DHT22;1509;51.964;7.628;2024-01-10T04:59:09;-5.50;99.90
2999;DHT22;1509;51.964;7.628;2024-01-10T05:01:35;-5.50;99.90
2999;DHT22;1509;51.964;7.628;2024-01-10T05:04:02;-5.50;99.90
2999;DHT22;1509;51.964;7.628;2024-01-10T05:06:28;-5.30;99.90
2999;DHT22;1509;51.964;7.628;2024-01-10T05:08:53;-5.50;99.90
2999;DHT22;1509;51.964;7.628;2024-01-10T05:11:24;-5.60;99.90
2999;DHT22;1509;51.964;7.628;2024-01-10T05:13:52;-5.60;99.90
2999;DHT22;1509;51.964;7.628;2024-01-10T05:16:18;-5.60;99.90
2999;DHT22;1509;51.964;7.628;2024-01-10T05:18:43;-5.60;99.90
2999;DHT22;1509;51.964;7.628;2024-01-10T05:21:09;-5.60;99.90
2999;DHT22;1509;51.964;7.628;2024-01-10T05:23:35;-5.60;99.90
2999;DHT22;1509;51.964;7.628;2024-01-10T05:26:02;-5.60;99.90
2999;DHT22;1509;51.964;7.628;2024-01-10T05:28:28;-5.60;99.90
2999;DHT22;1509;51.964;7.628;2024-01-10T05:30:53;-5.50;99.90
2999;DHT22;1509;51.964;7.628;2024-01-10T05:33:19;-5.60;99.90
2999;DHT22;1509;51.964;7.628;2024-01-10T05:35:45;-5.50;99.90
2999;DHT22;1509;51.964;7.628;2024-01-10T05:38:11;-5.60;99.90
2999;DHT22;1509;51.964;7.628;2024-01-10T05:40:36;-5.60;99.90
2999;DHT22;1509;51.964;7.628;2024-01-10T05:43:02;-5.60;99.90
2999;DHT22;1509;51.964;7.628;2024-01-10T05:45:27;-5.60;99.90
2999;DHT22;1509;51.964;7.628;2024-01-10T05:47:54;-5.60;99.90
2999;DHT22;1509;51.964;7.628;2024-01-10T05:50:20;-5.70;99.90
2999;DHT22;1509;51.964;7.628;2024-01-10T05:52:46;-5.60;99.90
2999;DHT22;1509;51.964;7.628;2024-01-10T05:55:12;-5.70;99.90
2999;DHT22;1509;51.964;7.628;2024-01-10T05:57:37;-5.80;99.90
2999;DHT22;1509;51.964;7.628;2024-01-10T06:00:04;-5.70;99.90
2999;DHT22;1509;51.964;7.628;2024-01-10T06:02:36;-5.70;99.90
2999;DHT22;1509;51.964;7.628;2024-01-10T06:05:07;-5.80;99.90
2999;DHT22;1509;51.964;7.628;2024-01-10T06:07:34;-5.80;99.90
2999;DHT22;1509;51.964;7.628;2024-01-10T06:10:00;-5.80;99.90
2999;DHT22;1509;51.964;7.628;2024-01-10T06:12:27;-5.80;99.90
2999;DHT22;1509;51.964;7.628;2024-01-10T06:14:52;-5.90;99.90
2999;DHT22;1509;51.964;7.628;2024-01-10T06:17:18;-5.90;99.90
2999;DHT22;1509;51.964;7.628;2024-01-10T06:19:44;-5.80;99.90
2999;DHT22;1509;51.964;7.628;2024-01-10T06:22:10;-5.80;99.90
2999;DHT22;1509;51.964;7.628;2024-01-10T06:24:36;-5.80;99.90
2999;DHT22;1509;51.964;7.628;2024-01-10T06:27:03;-5.90;99.90
2999;DHT22;1509;51.964;7.628;2024-01-10T06:29:30;-5.90;99.90
2999;DHT22;1509;51.964;7.628;2024-01-10T06:31:55;-5.90;99.90
2999;DHT22;1509;51.964;7.628;2024-01-10T06:34:22;-5.90;99.90
2999;DHT22;1509;51.964;7.628;2024-01-10T06:36:48;-5.90;99.90
2999;DHT22;1509;51.964;7.628;2024-01-10T06:39:13;-5.90;99.90
2999;DHT22;1509;51.964;7.628;2024-01-10T06:41:41;-5.90;99.90
2999;DHT22;1509;51.964;7.628;2024-01-10T06:44:08;-5.80;99.90
2999;DHT22;1509;51.964;7.628;2024-01-10T06:46:36;-5.90;99.90
2999;DHT22;1509;51.964;7.628;2024-01-10T06:49:02;-5.90;99.90
2999;DHT22;1509;51.964;7.628;2024-01-10T06:51:27;-6.00;99.90
2999;DHT22;1509;51.964;7.628;2024-01-10T06:53:53;-6.00;99.90
2999;DHT22;1509;51.964;7.628;2024-01-10T06:56:25;-6.00;99.90
2999;DHT22;1509;51.964;7.628;2024-01-10T06:58:51;-6.00;99.90
2999;DHT22;1509;51.964;7.628;2024-01-10T07:01:17;-5.90;99.90
2999;DHT22;1509;51.964;7.628;2024-01-10T07:03:42;-5.90;99.90
2999;DHT22;1509;51.964;7.628;2024-01-10T07:06:10;-5.90;99.90
2999;DHT22;1509;51.964;7.628;2024-01-10T07:08:40;-5.80;99.90
2999;DHT22;1509;51.964;7.628;2024-01-10T07:11:06;-5.90;99.90
2999;DHT22;1509;51.964;7.628;2024-01-10T07:13:31;-5.90;99.90
2999;DHT22;1509;51.964;7.628;2024-01-10T07:15:57;-5.90;99.90
2999;DHT22;1509;51.964;7.628;2024-01-10T07:18:22;-5.90;99.90
2999;DHT22;1509;51.964;7.628;2024-01-10T07:20:48;-6.00;99.90
2999;DHT22;1509;51.964;7.628;2024-01-10T07:23:14;-5.90;99.90
2999;DHT22;1509;51.964;7.628;2024-01-10T07:25:39;-5.90;99.90
2999;DHT22;1509;51.964;7.628;2024-01-10T07:28:05;-6.00;99.90
2999;DHT22;1509;51.964;7.628;2024-01-10T07:30:30;-5.90;99.90
2999;DHT22;1509;51.964;7.628;2024-01-10T07:32:58;-6.00;99.90
2999;DHT22;1509;51.964;7.628;2024-01-10T07:35:24;-5.90;99.90
2999;DHT22;1509;51.964;7.628;2024-01-10T07:37:50;-5.90;99.90
2999;DHT22;1509;51.964;7.628;2024-01-10T07:40:16;-5.90;99.90
2999;DHT22;1509;51.964;7.628;2024-01-10T07:42:42;-5.90;99.90
2999;DHT22;1509;51.964;7.628;2024-01-10T07:45:09;-5.90;99.90
2999;DHT22;1509;51.964;7.628;2024-01-10T07:47:35;-5.80;99.90
2999;DHT22;1509;51.964;7.628;2024-01-10T07:50:05;-5.80;99.90
2999;DHT22;1509;51.964;7.628;2024-01-10T07:52:32;-5.90;99.90
2999;DHT22;1509;51.964;7.628;2024-01-10T07:54:57;-5.70;99.90
2999;DHT22;1509;51.964;7.628;2024-01-10T07:57:23;-5.90;99.90
2999;DHT22;1509;51.964;7.628;2024-01-10T07:59:49;-5.90;99.90
2999;DHT22;1509;51.964;7.628;2024-01-10T08:02:14;-5.90;99.90
2999;DHT22;1509;51.964;7.628;2024-01-10T08:04:40;-5.80;99.90
2999;DHT22;1509;51.964;7.628;2024-01-10T08:07:06;-5.80;99.90
2999;DHT22;1509;51.964;7.628;2024-01-10T08:09:32;-5.80;99.90
2999;DHT22;1509;51.964;7.628;2024-01-10T08:11:57;-5.60;99.90
2999;DHT22;1509;51.964;7.628;2024-01-10T08:14:23;-5.70;99.90
2999;DHT22;1509;51.964;7.628;2024-01-10T08:16:49;-5.70;99.90
2999;DHT22;1509;51.964;7.628;2024-01-10T08:19:18;-5.60;99.90
2999;DHT22;1509;51.964;7.628;2024-01-10T08:21:47;-5.60;99.90
2999;DHT22;1509;51.964;7.628;2024-01-10T08:24:12;-5.50;99.90
2999;DHT22;1509;51.964;7.628;2024-01-10T08:26:38;-5.50;99.90
2999;DHT22;1509;51.964;7.628;2024-01-10T08:29:04;-5.40;99.90
2999;DHT22;1509;51.964;7.628;2024-01-10T08:31:29;-5.50;99.90
2999;DHT22;1509;51.964;7.628;2024-01-10T08:33:55;-5.00;99.90
2999;DHT22;1509;51.964;7.628;2024-01-10T08:36:22;-5.30;99.90
2999;DHT22;1509;51.964;7.628;2024-01-10T08:38:50;-5.20;99.90
2999;DHT22;1509;51.964;7.628;2024-01-10T08:41:18;-5.30;99.90
2999;DHT22;1509;51.964;7.628;2024-01-10T08:43:54;-5.20;99.90
2999;DHT22;1509;51.964;7.628;2024-01-10T08:46:20;-5.10;99.90
2999;DHT22;1509;51.964;7.628;2024-01-10T08:48:46;-5.10;99.90
2999;DHT22;1509;51.964;7.628;2024-01-10T08:51:13;-5.00;99.90
2999;DHT22;1509;51.964;7.628;2024-01-10T08:53:41;-5.00;99.90
2999;DHT22;1509;51.964;7.628;2024-01-10T08:56:07;-4.90;99.90
2999;DHT22;1509;51.964;7.628;2024-01-10T08:58:33;-4.90;99.90
2999;DHT22;1509;51.964;7.628;2024-01-10T09:00:59;-4.90;99.90
2999;DHT22;1509;51.964;7.628;2024-01-10T09:03:24;-4.80;99.90
2999;DHT22;1509;51.964;7.628;2024-01-10T09:05:50;-4.80;99.90
2999;DHT22;1509;51.964;7.628;2024-01-10T09:08:15;-4.70;99.90
2999;DHT22;1509;51.964;7.628;2024-01-10T09:10:41;-4.70;99.90
2999;DHT22;1509;51.964;7.628;2024-01-10T09:13:07;-4.60;99.90
2999;DHT22;1509;51.964;7.628;2024-01-10T09:15:32;-4.60;99.90
2999;DHT22;1509;51.964;7.628;2024-01-10T09:17:58;-4.50;99.90
2999;DHT22;1509;51.964;7.628;2024-01-10T09:20:24;-4.50;99.90
2999;DHT22;1509;51.964;7.628;2024-01-10T09:22:50;-4.40;99.90
2999;DHT22;1509;51.964;7.628;2024-01-10T09:25:16;-4.40;99.90
2999;DHT22;1509;51.964;7.628;2024-01-10T09:27:41;-4.30;99.90
2999;DHT22;1509;51.964;7.628;2024-01-10T09:30:09;-4.10;99.90
2999;DHT22;1509;51.964;7.628;2024-01-10T09:32:35;-4.20;99.90
2999;DHT22;1509;51.964;7.628;2024-01-10T09:35:02;-3.90;99.90
2999;DHT22;1509;51.964;7.628;2024-01-10T09:37:27;-3.30;99.90
2999;DHT22;1509;51.964;7.628;2024-01-10T09:39:53;-2.60;99.90
2999;DHT22;1509;51.964;7.628;2024-01-10T09:42:19;-1.80;99.90
2999;DHT22;1509;51.964;7.628;2024-01-10T09:44:47;-0.80;99.90
2999;DHT22;1509;51.964;7.628;2024-01-10T09:47:15;0.40;99.90
2999;DHT22;1509;51.964;7.628;2024-01-10T09:49:41;1.00;99.90
2999;DHT22;1509;51.964;7.628;2024-01-10T09:52:42;1.50;99.90
2999;DHT22;1509;51.964;7.628;2024-01-10T09:55:09;1.90;99.90
2999;DHT22;1509;51.964;7.628;2024-01-10T09:57:35;1.20;99.90
2999;DHT22;1509;51.964;7.628;2024-01-10T10:00:02;0.00;99.90
2999;DHT22;1509;51.964;7.628;2024-01-10T10:02:37;-0.70;99.90
2999;DHT22;1509;51.964;7.628;2024-01-10T10:05:14;-1.40;99.90
2999;DHT22;1509;51.964;7.628;2024-01-10T10:07:48;-1.50;99.90
2999;DHT22;1509;51.964;7.628;2024-01-10T10:10:15;-1.80;99.90
2999;DHT22;1509;51.964;7.628;2024-01-10T10:12:53;-2.10;99.90
2999;DHT22;1509;51.964;7.628;2024-01-10T10:15:23;-2.10;99.90
2999;DHT22;1509;51.964;7.628;2024-01-10T10:17:51;-2.10;99.90
2999;DHT22;1509;51.964;7.628;2024-01-10T10:20:25;-2.10;99.90
2999;DHT22;1509;51.964;7.628;2024-01-10T10:23:11;-2.10;99.90
2999;DHT22;1509;51.964;7.628;2024-01-10T10:25:43;-2.00;99.90
2999;DHT22;1509;51.964;7.628;2024-01-10T10:28:09;-1.90;99.90
2999;DHT22;1509;51.964;7.628;2024-01-10T10:30:35;-1.80;99.90
2999;DHT22;1509;51.964;7.628;2024-01-10T10:33:05;-1.60;99.90
2999;DHT22;1509;51.964;7.628;2024-01-10T10:35:32;-1.60;99.90
2999;DHT22;1509;51.964;7.628;2024-01-10T10:37:59;-1.50;99.90
2999;DHT22;1509;51.964;7.628;2024-01-10T10:40:25;-1.40;99.90
2999;DHT22;1509;51.964;7.628;2024-01-10T10:42:55;-1.40;99.90
2999;DHT22;1509;51.964;7.628;2024-01-10T10:45:30;-1.40;99.90
2999;DHT22;1509;51.964;7.628;2024-01-10T10:47:58;-1.50;99.90
2999;DHT22;1509;51.964;7.628;2024-01-10T10:50:28;-1.20;99.90
2999;DHT22;1509;51.964;7.628;2024-01-10T10:52:55;-1.40;99.90
2999;DHT22;1509;51.964;7.628;2024-01-10T10:55:25;-1.40;99.90
2999;DHT22;1509;51.964;7.628;2024-01-10T10:57:52;-1.40;99.90
2999;DHT22;1509;51.964;7.628;2024-01-10T11:00:26;-1.30;99.90
2999;DHT22;1509;51.964;7.628;2024-01-10T11:02:58;-1.20;99.90
2999;DHT22;1509;51.964;7.628;2024-01-10T11:05:24;-1.30;99.90
2999;DHT22;1509;51.964;7.628;2024-01-10T11:07:51;-1.30;99.90
2999;DHT22;1509;51.964;7.628;2024-01-10T11:10:28;-1.30;99.90
2999;DHT22;1509;51.964;7.628;2024-01-10T11:13:22;-1.50;99.90
2999;DHT22;1509;51.964;7.628;2024-01-10T11:21:13;-1.20;99.90
2999;DHT22;1509;51.964;7.628;2024-01-10T11:23:48;-1.10;99.90
2999;DHT22;1509;51.964;7.628;2024-01-10T11:26:16;-1.10;99.90
2999;DHT22;1509;51.964;7.628;2024-01-10T11:28:43;-1.10;99.90
2999;DHT22;1509;51.964;7.628;2024-01-10T11:31:09;-1.10;99.90
2999;DHT22;1509;51.964;7.628;2024-01-10T11:33:37;-1.10;99.90
2999;DHT22;1509;51.964;7.628;2024-01-10T11:36:13;-0.80;99.90
2999;DHT22;1509;51.964;7.628;2024-01-10T11:38:44;-0.90;99.90
2999;DHT22;1509;51.964;7.628;2024-01-10T11:41:20;-0.60;99.90
2999;DHT22;1509;51.964;7.628;2024-01-10T11:43:46;-0.50;99.90
2999;DHT22;1509;51.964;7.628;2024-01-10T11:46:12;-0.50;99.90
2999;DHT22;1509;51.964;7.628;2024-01-10T11:48:38;-0.30;99.90
2999;DHT22;1509;51.964;7.628;2024-01-10T11:51:04;-0.20;99.90
2999;DHT22;1509;51.964;7.628;2024-01-10T11:53:40;-0.40;99.90
2999;DHT22;1509;51.964;7.628;2024-01-10T11:56:10;-0.50;99.90
2999;DHT22;1509;51.964;7.628;2024-01-10T11:59:01;-0.40;99.90
2999;DHT22;1509;51.964;7.628;2024-01-10T12:01:27;-0.40;99.90
2999;DHT22;1509;51.964;7.628;2024-01-10T12:03:53;-0.40;99.90
2999;DHT22;1509;51.964;7.628;2024-01-10T12:06:21;-0.20;99.90
2999;DHT22;1509;51.964;7.628;2024-01-10T12:08:50;0.60;99.90
2999;DHT22;1509;51.964;7.628;2024-01-10T12:11:16;2.40;99.90
2999;DHT22;1509;51.964;7.628;2024-01-10T12:13:42;4.50;99.90
2999;DHT22;1509;51.964;7.628;2024-01-10T12:16:14;5.90;99.90
2999;DHT22;1509;51.964;7.628;2024-01-10T12:18:43;6.90;99.90
2999;DHT22;1509;51.964;7.628;2024-01-10T12:21:09;7.00;99.90
2999;DHT22;1509;51.964;7.628;2024-01-10T12:23:39;7.80;99.90
2999;DHT22;1509;51.964;7.628;2024-01-10T12:26:07;8.60;99.90
2999;DHT22;1509;51.964;7.628;2024-01-10T12:28:37;9.00;98.70
2999;DHT22;1509;51.964;7.628;2024-01-10T12:31:06;9.10;98.10
2999;DHT22;1509;51.964;7.628;2024-01-10T12:33:36;9.30;97.40
2999;DHT22;1509;51.964;7.628;2024-01-10T12:36:11;9.60;97.40
2999;DHT22;1509;51.964;7.628;2024-01-10T12:38:40;9.60;95.70
2999;DHT22;1509;51.964;7.628;2024-01-10T12:41:06;9.20;95.00
2999;DHT22;1509;51.964;7.628;2024-01-10T12:43:34;9.10;95.40
2999;DHT22;1509;51.964;7.628;2024-01-10T12:48:30;9.60;95.30
2999;DHT22;1509;51.964;7.628;2024-01-10T12:50:57;9.40;94.30
2999;DHT22;1509;51.964;7.628;2024-01-10T12:53:22;9.30;93.10
2999;DHT22;1509;51.964;7.628;2024-01-10T12:55:48;8.90;92.80
2999;DHT22;1509;51.964;7.628;2024-01-10T12:58:14;8.60;92.80
2999;DHT22;1509;51.964;7.628;2024-01-10T13:00:39;8.50;93.20
2999;DHT22;1509;51.964;7.628;2024-01-10T13:03:06;8.30;92.60
2999;DHT22;1509;51.964;7.628;2024-01-10T13:05:31;8.20;93.30
2999;DHT22;1509;51.964;7.628;2024-01-10T13:07:57;7.90;93.70
2999;DHT22;1509;51.964;7.628;2024-01-10T13:10:25;7.60;94.00
2999;DHT22;1509;51.964;7.628;2024-01-10T13:12:51;7.30;94.30
2999;DHT22;1509;51.964;7.628;2024-01-10T13:15:16;6.70;94.00
2999;DHT22;1509;51.964;7.628;2024-01-10T13:17:43;6.20;94.60
2999;DHT22;1509;51.964;7.628;2024-01-10T13:20:09;5.50;94.90
2999;DHT22;1509;51.964;7.628;2024-01-10T13:22:39;4.60;95.40
2999;DHT22;1509;51.964;7.628;2024-01-10T13:25:05;3.70;95.60
2999;DHT22;1509;51.964;7.628;2024-01-10T13:27:30;3.20;96.30
2999;DHT22;1509;51.964;7.628;2024-01-10T13:29:57;2.80;96.80
2999;DHT22;1509;51.964;7.628;2024-01-10T13:32:23;2.50;97.20
2999;DHT22;1509;51.964;7.628;2024-01-10T13:34:48;2.10;97.90
2999;DHT22;1509;51.964;7.628;2024-01-10T13:37:16;1.70;98.60
2999;DHT22;1509;51.964;7.628;2024-01-10T13:39:42;1.70;99.20
2999;DHT22;1509;51.964;7.628;2024-01-10T13:42:08;1.70;99.70
2999;DHT22;1509;51.964;7.628;2024-01-10T13:44:42;1.70;99.80
2999;DHT22;1509;51.964;7.628;2024-01-10T13:47:07;1.60;99.90
2999;DHT22;1509;51.964;7.628;2024-01-10T13:49:33;1.40;99.90
2999;DHT22;1509;51.964;7.628;2024-01-10T13:51:58;1.40;99.90
2999;DHT22;1509;51.964;7.628;2024-01-10T13:57:12;1.70;99.90
2999;DHT22;1509;51.964;7.628;2024-01-10T13:59:38;1.90;99.90
2999;DHT22;1509;51.964;7.628;2024-01-10T14:02:04;1.70;99.90
2999;DHT22;1509;51.964;7.628;2024-01-10T14:04:30;2.20;99.90
2999;DHT22;1509;51.964;7.628;2024-01-10T14:06:55;2.40;99.90
2999;DHT22;1509;51.964;7.628;2024-01-10T14:09:21;2.60;99.90
2999;DHT22;1509;51.964;7.628;2024-01-10T14:11:47;2.70;99.90
2999;DHT22;1509;51.964;7.628;2024-01-10T14:14:15;2.70;99.90
2999;DHT22;1509;51.964;7.628;2024-01-10T14:16:44;2.60;99.90
2999;DHT22;1509;51.964;7.628;2024-01-10T14:19:09;2.30;99.90
2999;DHT22;1509;51.964;7.628;2024-01-10T14:21:35;2.10;99.90
2999;DHT22;1509;51.964;7.628;2024-01-10T14:24:00;1.90;99.90
2999;DHT22;1509;51.964;7.628;2024-01-10T14:26:27;1.60;99.90
2999;DHT22;1509;51.964;7.628;2024-01-10T14:28:52;1.40;99.90
2999;DHT22;1509;51.964;7.628;2024-01-10T14:31:21;1.20;99.90
2999;DHT22;1509;51.964;7.628;2024-01-10T14:33:47;1.20;99.90
2999;DHT22;1509;51.964;7.628;2024-01-10T14:36:13;1.00;99.90
2999;DHT22;1509;51.964;7.628;2024-01-10T14:38:39;0.80;99.90
2999;DHT22;1509;51.964;7.628;2024-01-10T14:41:06;0.70;99.90
2999;DHT22;1509;51.964;7.628;2024-01-10T14:43:32;0.70;99.90
2999;DHT22;1509;51.964;7.628;2024-01-10T14:45:57;0.40;99.90
2999;DHT22;1509;51.964;7.628;2024-01-10T14:48:23;0.30;99.90
2999;DHT22;1509;51.964;7.628;2024-01-10T14:50:52;0.30;99.90
2999;DHT22;1509;51.964;7.628;2024-01-10T14:53:18;0.30;99.90
2999;DHT22;1509;51.964;7.628;2024-01-10T14:55:43;0.20;99.90
2999;DHT22;1509;51.964;7.628;2024-01-10T14:58:09;0.30;99.90
2999;DHT22;1509;51.964;7.628;2024-01-10T15:00:34;0.10;99.90
2999;DHT22;1509;51.964;7.628;2024-01-10T15:03:00;0.10;99.90
2999;DHT22;1509;51.964;7.628;2024-01-10T15:05:28;0.00;99.90
2999;DHT22;1509;51.964;7.628;2024-01-10T15:07:53;0.10;99.90
2999;DHT22;1509;51.964;7.628;2024-01-10T15:10:19;0.00;99.90
2999;DHT22;1509;51.964;7.628;2024-01-10T15:12:48;0.00;99.90
2999;DHT22;1509;51.964;7.628;2024-01-10T15:15:13;0.00;99.90
2999;DHT22;1509;51.964;7.628;2024-01-10T15:17:42;0.00;99.90
2999;DHT22;1509;51.964;7.628;2024-01-10T15:20:10;-0.10;99.90
2999;DHT22;1509;51.964;7.628;2024-01-10T15:22:36;-0.20;99.90
2999;DHT22;1509;51.964;7.628;2024-01-10T15:25:05;-0.20;99.90
2999;DHT22;1509;51.964;7.628;2024-01-10T15:27:30;-0.30;99.90
2999;DHT22;1509;51.964;7.628;2024-01-10T15:29:56;-0.20;99.90
2999;DHT22;1509;51.964;7.628;2024-01-10T15:32:22;-0.40;99.90
2999;DHT22;1509;51.964;7.628;2024-01-10T15:34:47;-0.40;99.90
2999;DHT22;1509;51.964;7.628;2024-01-10T15:37:13;-0.40;99.90
2999;DHT22;1509;51.964;7.628;2024-01-10T15:39:40;-0.50;99.90
2999;DHT22;1509;51.964;7.628;2024-01-10T15:42:06;-0.50;99.90
2999;DHT22;1509;51.964;7.628;2024-01-10T15:44:31;-0.50;99.90
2999;DHT22;1509;51.964;7.628;2024-01-10T15:46:57;-0.60;99.90
2999;DHT22;1509;51.964;7.628;2024-01-10T15:49:23;-0.60;99.90
2999;DHT22;1509;51.964;7.628;2024-01-10T15:51:49;-0.60;99.90
2999;DHT22;1509;51.964;7.628;2024-01-10T15:54:15;-0.70;99.90
2999;DHT22;1509;51.964;7.628;2024-01-10T15:56:41;-0.70;99.90
2999;DHT22;1509;51.964;7.628;2024-01-10T15:59:07;-0.70;99.90
2999;DHT22;1509;51.964;7.628;2024-01-10T16:01:36;-0.70;99.90
2999;DHT22;1509;51.964;7.628;2024-01-10T16:04:02;-0.70;99.90
2999;DHT22;1509;51.964;7.628;2024-01-10T16:06:27;-0.80;99.90
2999;DHT22;1509;51.964;7.628;2024-01-10T16:08:53;-0.80;99.90
2999;DHT22;1509;51.964;7.628;2024-01-10T16:11:19;-0.80;99.90
2999;DHT22;1509;51.964;7.628;2024-01-10T16:13:45;-0.90;99.90